sensor_id;sensor_type;location;lat;lon;timestamp;P1;durP1;ratioP1;P2;durP2;ratioP2
20008;SDS011;10165;42.662;23.260;2024-03-08T00:00:13;3.60;;;2.63;;
20008;SDS011;10165;42.662;23.260;2024-03-08T00:02:43;2.57;;;2.00;;
20008;SDS011;10165;42.662;23.260;2024-03-08T00:05:10;2.23;;;2.03;;
20008;SDS011;10165;42.662;23.260;2024-03-08T00:07:38;3.20;;;2.23;;
20008;SDS011;10165;42.662;23.260;2024-03-08T00:10:06;1.47;;;1.37;;
20008;SDS011;10165;42.662;23.260;2024-03-08T00:12:40;2.70;;;1.53;;
20008;SDS011;10165;42.662;23.260;2024-03-08T00:15:15;3.43;;;1.57;;
20008;SDS011;10165;42.662;23.260;2024-03-08T00:17:45;1.50;;;1.37;;
20008;SDS011;10165;42.662;23.260;2024-03-08T00:20:14;2.33;;;1.23;;
20008;SDS011;10165;42.662;23.260;2024-03-08T00:22:41;1.60;;;1.50;;
20008;SDS011;10165;42.662;23.260;2024-03-08T00:25:08;1.87;;;1.67;;
20008;SDS011;10165;42.662;23.260;2024-03-08T00:27:36;2.23;;;1.63;;
20008;SDS011;10165;42.662;23.260;2024-03-08T00:30:04;2.70;;;2.17;;
20008;SDS011;10165;42.662;23.260;2024-03-08T00:32:32;3.00;;;1.77;;
20008;SDS011;10165;42.662;23.260;2024-03-08T00:34:59;2.23;;;1.70;;
20008;SDS011;10165;42.662;23.260;2024-03-08T00:37:26;3.30;;;2.30;;
20008;SDS011;10165;42.662;23.260;2024-03-08T00:39:53;2.93;;;2.23;;
20008;SDS011;10165;42.662;23.260;2024-03-08T00:42:20;2.67;;;1.83;;
20008;SDS011;10165;42.662;23.260;2024-03-08T00:44:47;4.37;;;2.33;;
20008;SDS011;10165;42.662;23.260;2024-03-08T00:47:17;3.47;;;2.33;;
20008;SDS011;10165;42.662;23.260;2024-03-08T00:49:44;3.73;;;1.97;;
20008;SDS011;10165;42.662;23.260;2024-03-08T00:52:14;4.03;;;2.23;;
20008;SDS011;10165;42.662;23.260;2024-03-08T00:54:46;2.53;;;1.97;;
20008;SDS011;10165;42.662;23.260;2024-03-08T00:57:12;1.60;;;1.40;;
20008;SDS011;10165;42.662;23.260;2024-03-08T00:59:41;1.50;;;1.37;;
20008;SDS011;10165;42.662;23.260;2024-03-08T01:05:19;2.23;;;1.60;;
20008;SDS011;10165;42.662;23.260;2024-03-08T01:08:28;1.53;;;1.40;;
20008;SDS011;10165;42.662;23.260;2024-03-08T01:10:55;2.20;;;1.63;;
20008;SDS011;10165;42.662;23.260;2024-03-08T01:13:22;2.20;;;2.00;;
20008;SDS011;10165;42.662;23.260;2024-03-08T01:15:52;2.87;;;2.13;;
20008;SDS011;10165;42.662;23.260;2024-03-08T01:18:18;2.20;;;2.00;;
20008;SDS011;10165;42.662;23.260;2024-03-08T01:20:46;2.43;;;1.70;;
20008;SDS011;10165;42.662;23.260;2024-03-08T01:23:13;3.07;;;2.30;;
20008;SDS011;10165;42.662;23.260;2024-03-08T01:25:40;1.43;;;1.33;;
20008;SDS011;10165;42.662;23.260;2024-03-08T01:28:07;2.10;;;1.60;;
20008;SDS011;10165;42.662;23.260;2024-03-08T01:30:35;1.67;;;1.57;;
20008;SDS011;10165;42.662;23.260;2024-03-08T01:33:03;2.27;;;1.50;;
20008;SDS011;10165;42.662;23.260;2024-03-08T01:35:30;1.30;;;1.20;;
20008;SDS011;10165;42.662;23.260;2024-03-08T01:37:57;1.50;;;1.40;;
20008;SDS011;10165;42.662;23.260;2024-03-08T01:40:24;3.00;;;1.80;;
20008;SDS011;10165;42.662;23.260;2024-03-08T01:42:50;1.27;;;1.13;;
20008;SDS011;10165;42.662;23.260;2024-03-08T01:45:17;1.87;;;1.27;;
20008;SDS011;10165;42.662;23.260;2024-03-08T01:47:44;1.30;;;1.20;;
20008;SDS011;10165;42.662;23.260;2024-03-08T01:50:11;2.40;;;1.77;;
20008;SDS011;10165;42.662;23.260;2024-03-08T01:52:38;1.90;;;1.70;;
20008;SDS011;10165;42.662;23.260;2024-03-08T01:55:05;1.60;;;1.47;;
20008;SDS011;10165;42.662;23.260;2024-03-08T01:57:35;1.80;;;1.67;;
20008;SDS011;10165;42.662;23.260;2024-03-08T02:00:03;2.17;;;1.97;;
20008;SDS011;10165;42.662;23.260;2024-03-08T02:02:32;2.07;;;1.87;;
20008;SDS011;10165;42.662;23.260;2024-03-08T02:05:00;1.50;;;1.40;;
20008;SDS011;10165;42.662;23.260;2024-03-08T02:07:27;2.20;;;2.00;;
20008;SDS011;10165;42.662;23.260;2024-03-08T02:09:53;3.40;;;1.90;;
20008;SDS011;10165;42.662;23.260;2024-03-08T02:12:20;2.33;;;1.80;;
20008;SDS011;10165;42.662;23.260;2024-03-08T02:14:47;2.03;;;1.83;;
20008;SDS011;10165;42.662;23.260;2024-03-08T02:17:14;2.17;;;1.87;;
20008;SDS011;10165;42.662;23.260;2024-03-08T02:19:41;2.17;;;1.90;;
20008;SDS011;10165;42.662;23.260;2024-03-08T02:22:08;2.00;;;1.63;;
20008;SDS011;10165;42.662;23.260;2024-03-08T02:24:35;5.90;;;1.97;;
20008;SDS011;10165;42.662;23.260;2024-03-08T02:27:02;2.20;;;2.00;;
20008;SDS011;10165;42.662;23.260;2024-03-08T02:29:29;1.83;;;1.63;;
20008;SDS011;10165;42.662;23.260;2024-03-08T02:31:57;3.93;;;1.73;;
20008;SDS011;10165;42.662;23.260;2024-03-08T02:34:24;1.87;;;1.57;;
20008;SDS011;10165;42.662;23.260;2024-03-08T02:36:51;1.83;;;1.50;;
20008;SDS011;10165;42.662;23.260;2024-03-08T02:39:18;1.97;;;1.60;;
20008;SDS011;10165;42.662;23.260;2024-03-08T02:41:46;1.83;;;1.73;;
20008;SDS011;10165;42.662;23.260;2024-03-08T02:44:13;1.80;;;1.70;;
20008;SDS011;10165;42.662;23.260;2024-03-08T02:46:41;2.73;;;2.10;;
20008;SDS011;10165;42.662;23.260;2024-03-08T02:49:07;3.03;;;1.77;;
20008;SDS011;10165;42.662;23.260;2024-03-08T02:51:34;2.63;;;2.03;;
20008;SDS011;10165;42.662;23.260;2024-03-08T02:54:02;2.33;;;1.90;;
20008;SDS011;10165;42.662;23.260;2024-03-08T02:56:30;1.97;;;1.77;;
20008;SDS011;10165;42.662;23.260;2024-03-08T02:59:01;1.97;;;1.70;;
20008;SDS011;10165;42.662;23.260;2024-03-08T03:01:28;1.87;;;1.63;;
20008;SDS011;10165;42.662;23.260;2024-03-08T03:03:55;0.90;;;0.90;;
20008;SDS011;10165;42.662;23.260;2024-03-08T03:06:22;1.43;;;1.33;;
20008;SDS011;10165;42.662;23.260;2024-03-08T03:08:49;2.93;;;2.07;;
20008;SDS011;10165;42.662;23.260;2024-03-08T03:11:17;3.13;;;1.87;;
20008;SDS011;10165;42.662;23.260;2024-03-08T03:13:44;2.00;;;1.67;;
20008;SDS011;10165;42.662;23.260;2024-03-08T03:16:20;1.03;;;0.93;;
20008;SDS011;10165;42.662;23.260;2024-03-08T03:18:47;2.07;;;1.73;;
20008;SDS011;10165;42.662;23.260;2024-03-08T03:21:14;1.27;;;1.17;;
20008;SDS011;10165;42.662;23.260;2024-03-08T03:23:42;5.70;;;1.40;;
20008;SDS011;10165;42.662;23.260;2024-03-08T03:26:09;1.67;;;1.53;;
20008;SDS011;10165;42.662;23.260;2024-03-08T03:28:38;1.60;;;1.40;;
20008;SDS011;10165;42.662;23.260;2024-03-08T03:31:06;1.10;;;1.00;;
20008;SDS011;10165;42.662;23.260;2024-03-08T03:33:35;1.37;;;1.27;;
20008;SDS011;10165;42.662;23.260;2024-03-08T03:36:03;0.90;;;0.90;;
20008;SDS011;10165;42.662;23.260;2024-03-08T03:38:31;2.20;;;1.33;;
20008;SDS011;10165;42.662;23.260;2024-03-08T03:40:58;1.47;;;1.37;;
20008;SDS011;10165;42.662;23.260;2024-03-08T03:43:32;3.90;;;1.60;;
20008;SDS011;10165;42.662;23.260;2024-03-08T03:45:59;1.03;;;0.83;;
20008;SDS011;10165;42.662;23.260;2024-03-08T03:48:26;1.10;;;1.10;;
20008;SDS011;10165;42.662;23.260;2024-03-08T03:50:53;1.87;;;1.77;;
20008;SDS011;10165;42.662;23.260;2024-03-08T03:53:19;1.30;;;1.07;;
20008;SDS011;10165;42.662;23.260;2024-03-08T03:55:46;1.50;;;1.20;;
20008;SDS011;10165;42.662;23.260;2024-03-08T03:58:13;2.43;;;1.60;;
20008;SDS011;10165;42.662;23.260;2024-03-08T04:00:40;0.97;;;0.90;;
20008;SDS011;10165;42.662;23.260;2024-03-08T04:03:07;1.20;;;1.10;;
20008;SDS011;10165;42.662;23.260;2024-03-08T04:05:35;1.10;;;1.10;;
20008;SDS011;10165;42.662;23.260;2024-03-08T04:08:02;1.70;;;1.60;;
20008;SDS011;10165;42.662;23.260;2024-03-08T04:10:29;1.20;;;1.10;;
20008;SDS011;10165;42.662;23.260;2024-03-08T04:12:56;1.57;;;1.13;;
20008;SDS011;10165;42.662;23.260;2024-03-08T04:15:23;1.13;;;1.00;;
20008;SDS011;10165;42.662;23.260;2024-03-08T04:17:50;1.00;;;1.00;;
20008;SDS011;10165;42.662;23.260;2024-03-08T04:20:17;1.30;;;1.20;;
20008;SDS011;10165;42.662;23.260;2024-03-08T04:22:44;1.53;;;1.20;;
20008;SDS011;10165;42.662;23.260;2024-03-08T04:25:16;2.13;;;1.30;;
20008;SDS011;10165;42.662;23.260;2024-03-08T04:27:42;1.10;;;1.10;;
20008;SDS011;10165;42.662;23.260;2024-03-08T04:30:10;2.10;;;1.63;;
20008;SDS011;10165;42.662;23.260;2024-03-08T04:32:38;1.20;;;1.07;;
20008;SDS011;10165;42.662;23.260;2024-03-08T04:35:05;1.60;;;1.27;;
20008;SDS011;10165;42.662;23.260;2024-03-08T04:37:32;0.93;;;0.83;;
20008;SDS011;10165;42.662;23.260;2024-03-08T04:39:59;1.13;;;1.00;;
20008;SDS011;10165;42.662;23.260;2024-03-08T04:42:26;0.90;;;0.90;;
20008;SDS011;10165;42.662;23.260;2024-03-08T04:44:56;0.97;;;0.97;;
20008;SDS011;10165;42.662;23.260;2024-03-08T04:47:23;1.57;;;1.00;;
20008;SDS011;10165;42.662;23.260;2024-03-08T04:49:51;1.30;;;1.00;;
20008;SDS011;10165;42.662;23.260;2024-03-08T04:52:18;1.30;;;1.00;;
20008;SDS011;10165;42.662;23.260;2024-03-08T04:54:45;1.00;;;0.90;;
20008;SDS011;10165;42.662;23.260;2024-03-08T04:57:11;1.30;;;1.20;;
20008;SDS011;10165;42.662;23.260;2024-03-08T04:59:38;1.30;;;1.20;;
20008;SDS011;10165;42.662;23.260;2024-03-08T05:02:06;1.17;;;1.10;;
20008;SDS011;10165;42.662;23.260;2024-03-08T05:04:33;1.27;;;1.17;;
20008;SDS011;10165;42.662;23.260;2024-03-08T05:07:00;1.73;;;1.20;;
20008;SDS011;10165;42.662;23.260;2024-03-08T05:09:30;1.13;;;1.13;;
20008;SDS011;10165;42.662;23.260;2024-03-08T05:11:58;1.13;;;1.00;;
20008;SDS011;10165;42.662;23.260;2024-03-08T05:14:25;1.50;;;1.40;;
20008;SDS011;10165;42.662;23.260;2024-03-08T05:16:52;1.40;;;1.27;;
20008;SDS011;10165;42.662;23.260;2024-03-08T05:19:20;1.60;;;1.50;;
20008;SDS011;10165;42.662;23.260;2024-03-08T05:21:48;2.03;;;1.40;;
20008;SDS011;10165;42.662;23.260;2024-03-08T05:24:16;1.67;;;1.23;;
20008;SDS011;10165;42.662;23.260;2024-03-08T05:26:45;3.80;;;1.83;;
20008;SDS011;10165;42.662;23.260;2024-03-08T05:29:14;2.10;;;1.77;;
20008;SDS011;10165;42.662;23.260;2024-03-08T05:31:48;2.87;;;1.50;;
20008;SDS011;10165;42.662;23.260;2024-03-08T05:34:16;3.57;;;1.70;;
20008;SDS011;10165;42.662;23.260;2024-03-08T05:36:43;2.57;;;1.63;;
20008;SDS011;10165;42.662;23.260;2024-03-08T05:39:14;3.13;;;1.80;;
20008;SDS011;10165;42.662;23.260;2024-03-08T05:41:42;2.43;;;2.23;;
20008;SDS011;10165;42.662;23.260;2024-03-08T05:44:10;2.13;;;1.77;;
20008;SDS011;10165;42.662;23.260;2024-03-08T05:46:37;3.57;;;2.33;;
20008;SDS011;10165;42.662;23.260;2024-03-08T05:49:04;3.23;;;1.93;;
20008;SDS011;10165;42.662;23.260;2024-03-08T05:51:32;3.40;;;1.90;;
20008;SDS011;10165;42.662;23.260;2024-03-08T05:54:03;3.17;;;2.03;;
20008;SDS011;10165;42.662;23.260;2024-03-08T05:56:32;2.20;;;2.00;;
20008;SDS011;10165;42.662;23.260;2024-03-08T05:59:00;4.37;;;2.60;;
20008;SDS011;10165;42.662;23.260;2024-03-08T06:01:27;3.63;;;2.80;;
20008;SDS011;10165;42.662;23.260;2024-03-08T06:03:54;4.47;;;2.80;;
20008;SDS011;10165;42.662;23.260;2024-03-08T06:06:23;3.23;;;2.47;;
20008;SDS011;10165;42.662;23.260;2024-03-08T06:08:51;2.83;;;2.23;;
20008;SDS011;10165;42.662;23.260;2024-03-08T06:11:19;3.53;;;2.57;;
20008;SDS011;10165;42.662;23.260;2024-03-08T06:13:49;4.67;;;2.70;;
20008;SDS011;10165;42.662;23.260;2024-03-08T06:16:16;2.97;;;2.33;;
20008;SDS011;10165;42.662;23.260;2024-03-08T06:18:43;3.00;;;2.27;;
20008;SDS011;10165;42.662;23.260;2024-03-08T06:21:10;3.80;;;2.43;;
20008;SDS011;10165;42.662;23.260;2024-03-08T06:23:38;2.53;;;2.13;;
20008;SDS011;10165;42.662;23.260;2024-03-08T06:26:06;3.03;;;1.90;;
20008;SDS011;10165;42.662;23.260;2024-03-08T06:28:33;3.20;;;2.00;;
20008;SDS011;10165;42.662;23.260;2024-03-08T06:31:01;4.77;;;2.80;;
20008;SDS011;10165;42.662;23.260;2024-03-08T06:33:29;3.27;;;2.23;;
20008;SDS011;10165;42.662;23.260;2024-03-08T06:35:57;4.60;;;1.97;;
20008;SDS011;10165;42.662;23.260;2024-03-08T06:38:24;5.67;;;2.83;;
20008;SDS011;10165;42.662;23.260;2024-03-08T06:40:51;4.33;;;3.03;;
20008;SDS011;10165;42.662;23.260;2024-03-08T06:43:18;3.23;;;2.20;;
20008;SDS011;10165;42.662;23.260;2024-03-08T06:45:45;3.13;;;2.20;;
20008;SDS011;10165;42.662;23.260;2024-03-08T06:48:18;3.53;;;2.70;;
20008;SDS011;10165;42.662;23.260;2024-03-08T06:50:46;9.63;;;5.43;;
20008;SDS011;10165;42.662;23.260;2024-03-08T06:53:14;8.10;;;4.70;;
20008;SDS011;10165;42.662;23.260;2024-03-08T06:55:43;11.63;;;6.40;;
20008;SDS011;10165;42.662;23.260;2024-03-08T06:58:10;8.73;;;4.53;;
20008;SDS011;10165;42.662;23.260;2024-03-08T07:00:37;3.67;;;2.93;;
20008;SDS011;10165;42.662;23.260;2024-03-08T07:03:07;4.77;;;3.23;;
20008;SDS011;10165;42.662;23.260;2024-03-08T07:05:34;5.10;;;3.30;;
20008;SDS011;10165;42.662;23.260;2024-03-08T07:08:01;4.83;;;3.20;;
20008;SDS011;10165;42.662;23.260;2024-03-08T07:10:28;5.67;;;3.23;;
20008;SDS011;10165;42.662;23.260;2024-03-08T07:12:55;5.03;;;3.00;;
20008;SDS011;10165;42.662;23.260;2024-03-08T07:15:22;7.77;;;4.43;;
20008;SDS011;10165;42.662;23.260;2024-03-08T07:17:49;6.33;;;3.70;;
20008;SDS011;10165;42.662;23.260;2024-03-08T07:20:19;4.80;;;3.53;;
20008;SDS011;10165;42.662;23.260;2024-03-08T07:22:46;5.03;;;4.03;;
20008;SDS011;10165;42.662;23.260;2024-03-08T07:25:17;4.80;;;3.03;;
20008;SDS011;10165;42.662;23.260;2024-03-08T07:27:48;3.77;;;2.80;;
20008;SDS011;10165;42.662;23.260;2024-03-08T07:30:16;5.03;;;3.10;;
20008;SDS011;10165;42.662;23.260;2024-03-08T07:33:03;3.17;;;2.40;;
20008;SDS011;10165;42.662;23.260;2024-03-08T07:35:30;5.50;;;2.73;;
20008;SDS011;10165;42.662;23.260;2024-03-08T07:37:57;3.77;;;2.97;;
20008;SDS011;10165;42.662;23.260;2024-03-08T07:40:26;7.07;;;3.20;;
20008;SDS011;10165;42.662;23.260;2024-03-08T07:42:53;2.50;;;2.30;;
20008;SDS011;10165;42.662;23.260;2024-03-08T07:45:19;6.00;;;2.93;;
20008;SDS011;10165;42.662;23.260;2024-03-08T07:47:48;5.37;;;2.80;;
20008;SDS011;10165;42.662;23.260;2024-03-08T07:50:15;3.53;;;2.73;;
20008;SDS011;10165;42.662;23.260;2024-03-08T07:52:43;5.23;;;2.73;;
20008;SDS011;10165;42.662;23.260;2024-03-08T07:55:09;5.00;;;3.03;;
20008;SDS011;10165;42.662;23.260;2024-03-08T07:57:39;4.40;;;3.00;;
20008;SDS011;10165;42.662;23.260;2024-03-08T08:00:06;4.43;;;2.67;;
20008;SDS011;10165;42.662;23.260;2024-03-08T08:02:34;2.43;;;2.20;;
20008;SDS011;10165;42.662;23.260;2024-03-08T08:05:05;3.73;;;2.73;;
20008;SDS011;10165;42.662;23.260;2024-03-08T08:07:33;7.77;;;3.30;;
20008;SDS011;10165;42.662;23.260;2024-03-08T08:09:59;4.47;;;2.73;;
20008;SDS011;10165;42.662;23.260;2024-03-08T08:12:26;3.00;;;2.73;;
20008;SDS011;10165;42.662;23.260;2024-03-08T08:14:54;5.30;;;2.80;;
20008;SDS011;10165;42.662;23.260;2024-03-08T08:17:21;4.00;;;2.70;;
20008;SDS011;10165;42.662;23.260;2024-03-08T08:19:48;5.13;;;3.47;;
20008;SDS011;10165;42.662;23.260;2024-03-08T08:22:15;4.60;;;3.73;;
20008;SDS011;10165;42.662;23.260;2024-03-08T08:24:41;7.23;;;3.07;;
20008;SDS011;10165;42.662;23.260;2024-03-08T08:27:08;5.50;;;3.87;;
20008;SDS011;10165;42.662;23.260;2024-03-08T08:29:35;7.43;;;3.97;;
20008;SDS011;10165;42.662;23.260;2024-03-08T08:32:02;3.43;;;2.80;;
20008;SDS011;10165;42.662;23.260;2024-03-08T08:34:30;3.93;;;3.00;;
20008;SDS011;10165;42.662;23.260;2024-03-08T08:36:57;7.47;;;3.50;;
20008;SDS011;10165;42.662;23.260;2024-03-08T08:39:24;3.80;;;3.03;;
20008;SDS011;10165;42.662;23.260;2024-03-08T08:41:52;4.70;;;3.30;;
20008;SDS011;10165;42.662;23.260;2024-03-08T08:44:21;4.93;;;3.17;;
20008;SDS011;10165;42.662;23.260;2024-03-08T08:46:48;3.80;;;3.00;;
20008;SDS011;10165;42.662;23.260;2024-03-08T08:49:18;4.70;;;3.40;;
20008;SDS011;10165;42.662;23.260;2024-03-08T08:51:50;5.17;;;4.00;;
20008;SDS011;10165;42.662;23.260;2024-03-08T08:54:19;5.03;;;3.40;;
20008;SDS011;10165;42.662;23.260;2024-03-08T08:56:47;7.30;;;4.17;;
20008;SDS011;10165;42.662;23.260;2024-03-08T08:59:16;5.63;;;4.03;;
20008;SDS011;10165;42.662;23.260;2024-03-08T09:01:49;7.47;;;5.10;;
20008;SDS011;10165;42.662;23.260;2024-03-08T09:04:16;7.20;;;4.53;;
20008;SDS011;10165;42.662;23.260;2024-03-08T09:06:43;7.90;;;4.50;;
20008;SDS011;10165;42.662;23.260;2024-03-08T09:09:11;6.47;;;4.03;;
20008;SDS011;10165;42.662;23.260;2024-03-08T09:11:39;8.07;;;4.83;;
20008;SDS011;10165;42.662;23.260;2024-03-08T09:14:09;6.43;;;3.87;;
20008;SDS011;10165;42.662;23.260;2024-03-08T09:16:38;5.57;;;3.93;;
20008;SDS011;10165;42.662;23.260;2024-03-08T09:19:05;3.03;;;2.77;;
20008;SDS011;10165;42.662;23.260;2024-03-08T09:21:33;4.47;;;3.13;;
20008;SDS011;10165;42.662;23.260;2024-03-08T09:24:01;6.03;;;4.13;;
20008;SDS011;10165;42.662;23.260;2024-03-08T09:26:28;3.37;;;2.70;;
20008;SDS011;10165;42.662;23.260;2024-03-08T09:28:55;3.73;;;2.53;;
20008;SDS011;10165;42.662;23.260;2024-03-08T09:31:22;5.50;;;2.23;;
20008;SDS011;10165;42.662;23.260;2024-03-08T09:33:49;3.60;;;2.17;;
20008;SDS011;10165;42.662;23.260;2024-03-08T09:36:17;5.20;;;2.40;;
20008;SDS011;10165;42.662;23.260;2024-03-08T09:38:44;3.33;;;2.70;;
20008;SDS011;10165;42.662;23.260;2024-03-08T09:41:10;3.10;;;2.40;;
20008;SDS011;10165;42.662;23.260;2024-03-08T09:43:37;2.63;;;2.43;;
20008;SDS011;10165;42.662;23.260;2024-03-08T09:46:04;2.53;;;1.97;;
20008;SDS011;10165;42.662;23.260;2024-03-08T09:48:34;2.53;;;2.10;;
20008;SDS011;10165;42.662;23.260;2024-03-08T09:51:02;6.27;;;2.87;;
20008;SDS011;10165;42.662;23.260;2024-03-08T09:53:30;2.30;;;2.10;;
20008;SDS011;10165;42.662;23.260;2024-03-08T09:55:57;5.03;;;2.90;;
20008;SDS011;10165;42.662;23.260;2024-03-08T09:58:25;4.03;;;2.43;;
20008;SDS011;10165;42.662;23.260;2024-03-08T10:01:08;5.20;;;3.13;;
20008;SDS011;10165;42.662;23.260;2024-03-08T10:03:35;4.80;;;2.53;;
20008;SDS011;10165;42.662;23.260;2024-03-08T10:06:02;3.13;;;2.20;;
20008;SDS011;10165;42.662;23.260;2024-03-08T10:08:31;3.07;;;2.20;;
20008;SDS011;10165;42.662;23.260;2024-03-08T10:10:57;2.90;;;2.07;;
20008;SDS011;10165;42.662;23.260;2024-03-08T10:13:28;3.33;;;2.63;;
20008;SDS011;10165;42.662;23.260;2024-03-08T10:15:55;2.53;;;2.03;;
20008;SDS011;10165;42.662;23.260;2024-03-08T10:18:22;4.13;;;2.57;;
20008;SDS011;10165;42.662;23.260;2024-03-08T10:21:02;4.53;;;3.27;;
20008;SDS011;10165;42.662;23.260;2024-03-08T10:23:34;2.73;;;2.37;;
20008;SDS011;10165;42.662;23.260;2024-03-08T10:26:10;3.97;;;2.43;;
20008;SDS011;10165;42.662;23.260;2024-03-08T10:28:39;4.87;;;2.77;;
20008;SDS011;10165;42.662;23.260;2024-03-08T10:31:05;2.23;;;2.00;;
20008;SDS011;10165;42.662;23.260;2024-03-08T10:33:32;2.37;;;2.17;;
20008;SDS011;10165;42.662;23.260;2024-03-08T10:35:59;1.97;;;1.87;;
20008;SDS011;10165;42.662;23.260;2024-03-08T10:38:27;3.53;;;2.17;;
20008;SDS011;10165;42.662;23.260;2024-03-08T10:40:59;3.77;;;2.03;;
20008;SDS011;10165;42.662;23.260;2024-03-08T10:43:28;1.93;;;1.80;;
20008;SDS011;10165;42.662;23.260;2024-03-08T10:46:10;1.73;;;1.63;;
20008;SDS011;10165;42.662;23.260;2024-03-08T10:49:07;1.83;;;1.70;;
20008;SDS011;10165;42.662;23.260;2024-03-08T10:51:38;1.77;;;1.67;;
20008;SDS011;10165;42.662;23.260;2024-03-08T10:54:07;3.70;;;2.37;;
20008;SDS011;10165;42.662;23.260;2024-03-08T10:56:36;2.87;;;2.27;;
20008;SDS011;10165;42.662;23.260;2024-03-08T10:59:04;6.33;;;2.23;;
20008;SDS011;10165;42.662;23.260;2024-03-08T11:01:31;1.50;;;1.27;;
20008;SDS011;10165;42.662;23.260;2024-03-08T11:03:57;2.47;;;1.67;;
20008;SDS011;10165;42.662;23.260;2024-03-08T11:09:05;4.57;;;2.00;;
20008;SDS011;10165;42.662;23.260;2024-03-08T11:11:39;2.87;;;2.40;;
20008;SDS011;10165;42.662;23.260;2024-03-08T11:14:42;1.70;;;1.40;;
20008;SDS011;10165;42.662;23.260;2024-03-08T11:17:13;2.60;;;2.00;;
20008;SDS011;10165;42.662;23.260;2024-03-08T11:19:47;2.23;;;1.60;;
20008;SDS011;10165;42.662;23.260;2024-03-08T11:22:22;2.80;;;1.77;;
20008;SDS011;10165;42.662;23.260;2024-03-08T11:24:53;1.73;;;1.63;;
20008;SDS011;10165;42.662;23.260;2024-03-08T11:27:28;2.40;;;1.87;;
20008;SDS011;10165;42.662;23.260;2024-03-08T11:30:03;2.07;;;1.67;;
20008;SDS011;10165;42.662;23.260;2024-03-08T11:32:50;2.00;;;1.77;;
20008;SDS011;10165;42.662;23.260;2024-03-08T11:35:22;3.70;;;1.87;;
20008;SDS011;10165;42.662;23.260;2024-03-08T11:37:51;1.67;;;1.57;;
20008;SDS011;10165;42.662;23.260;2024-03-08T11:40:18;2.13;;;1.60;;
20008;SDS011;10165;42.662;23.260;2024-03-08T11:42:47;3.57;;;2.23;;
20008;SDS011;10165;42.662;23.260;2024-03-08T11:45:15;2.00;;;1.53;;
20008;SDS011;10165;42.662;23.260;2024-03-08T11:47:44;1.50;;;1.40;;
20008;SDS011;10165;42.662;23.260;2024-03-08T11:50:15;2.03;;;1.60;;
20008;SDS011;10165;42.662;23.260;2024-03-08T11:52:43;2.30;;;1.90;;
20008;SDS011;10165;42.662;23.260;2024-03-08T11:55:10;2.37;;;1.87;;
20008;SDS011;10165;42.662;23.260;2024-03-08T11:57:39;2.23;;;1.63;;
20008;SDS011;10165;42.662;23.260;2024-03-08T12:00:14;1.70;;;1.60;;
20008;SDS011;10165;42.662;23.260;2024-03-08T12:03:02;2.67;;;1.70;;
20008;SDS011;10165;42.662;23.260;2024-03-08T12:05:33;8.67;;;1.87;;
20008;SDS011;10165;42.662;23.260;2024-03-08T12:08:01;4.97;;;1.83;;
20008;SDS011;10165;42.662;23.260;2024-03-08T12:10:29;2.37;;;1.50;;
20008;SDS011;10165;42.662;23.260;2024-03-08T12:12:57;2.63;;;1.93;;
20008;SDS011;10165;42.662;23.260;2024-03-08T12:15:29;1.80;;;1.40;;
20008;SDS011;10165;42.662;23.260;2024-03-08T12:18:00;1.50;;;1.40;;
20008;SDS011;10165;42.662;23.260;2024-03-08T12:20:27;1.97;;;1.70;;
20008;SDS011;10165;42.662;23.260;2024-03-08T12:22:58;1.50;;;1.40;;
20008;SDS011;10165;42.662;23.260;2024-03-08T12:25:33;3.20;;;1.60;;
20008;SDS011;10165;42.662;23.260;2024-03-08T12:28:12;1.57;;;1.17;;
20008;SDS011;10165;42.662;23.260;2024-03-08T12:30:45;2.20;;;1.27;;
20008;SDS011;10165;42.662;23.260;2024-03-08T12:33:17;1.27;;;1.13;;
20008;SDS011;10165;42.662;23.260;2024-03-08T12:35:54;1.43;;;1.33;;
20008;SDS011;10165;42.662;23.260;2024-03-08T12:38:22;2.10;;;1.90;;
20008;SDS011;10165;42.662;23.260;2024-03-08T12:40:59;1.90;;;1.70;;
20008;SDS011;10165;42.662;23.260;2024-03-08T12:43:28;1.30;;;1.20;;
20008;SDS011;10165;42.662;23.260;2024-03-08T12:45:58;2.53;;;1.60;;
20008;SDS011;10165;42.662;23.260;2024-03-08T12:48:25;1.77;;;1.60;;
20008;SDS011;10165;42.662;23.260;2024-03-08T12:50:52;1.43;;;1.33;;
20008;SDS011;10165;42.662;23.260;2024-03-08T12:53:20;1.83;;;1.60;;
20008;SDS011;10165;42.662;23.260;2024-03-08T12:55:46;4.80;;;1.50;;
20008;SDS011;10165;42.662;23.260;2024-03-08T12:58:13;3.47;;;2.10;;
20008;SDS011;10165;42.662;23.260;2024-03-08T13:00:43;2.07;;;1.70;;
20008;SDS011;10165;42.662;23.260;2024-03-08T13:03:10;1.63;;;1.50;;
20008;SDS011;10165;42.662;23.260;2024-03-08T13:05:38;1.77;;;1.67;;
20008;SDS011;10165;42.662;23.260;2024-03-08T13:08:06;2.07;;;1.87;;
20008;SDS011;10165;42.662;23.260;2024-03-08T13:10:39;1.57;;;1.10;;
20008;SDS011;10165;42.662;23.260;2024-03-08T13:13:06;8.13;;;2.27;;
20008;SDS011;10165;42.662;23.260;2024-03-08T13:15:36;1.87;;;1.77;;
20008;SDS011;10165;42.662;23.260;2024-03-08T13:18:02;2.07;;;1.60;;
20008;SDS011;10165;42.662;23.260;2024-03-08T13:20:29;1.67;;;1.57;;
20008;SDS011;10165;42.662;23.260;2024-03-08T13:23:06;1.63;;;1.30;;
20008;SDS011;10165;42.662;23.260;2024-03-08T13:25:34;2.03;;;1.80;;
20008;SDS011;10165;42.662;23.260;2024-03-08T13:28:05;2.67;;;1.87;;
20008;SDS011;10165;42.662;23.260;2024-03-08T13:30:33;2.03;;;1.80;;
20008;SDS011;10165;42.662;23.260;2024-03-08T13:32:59;1.30;;;1.13;;
20008;SDS011;10165;42.662;23.260;2024-03-08T13:35:26;2.20;;;1.70;;
20008;SDS011;10165;42.662;23.260;2024-03-08T13:37:56;2.57;;;1.40;;
20008;SDS011;10165;42.662;23.260;2024-03-08T13:40:23;1.80;;;1.53;;
20008;SDS011;10165;42.662;23.260;2024-03-08T13:42:50;3.77;;;2.70;;
20008;SDS011;10165;42.662;23.260;2024-03-08T13:45:16;2.17;;;1.57;;
20008;SDS011;10165;42.662;23.260;2024-03-08T13:47:51;2.63;;;1.70;;
20008;SDS011;10165;42.662;23.260;2024-03-08T13:50:20;1.97;;;1.77;;
20008;SDS011;10165;42.662;23.260;2024-03-08T13:52:50;2.60;;;1.93;;
20008;SDS011;10165;42.662;23.260;2024-03-08T13:55:23;4.50;;;1.57;;
20008;SDS011;10165;42.662;23.260;2024-03-08T13:57:52;2.30;;;1.83;;
20008;SDS011;10165;42.662;23.260;2024-03-08T14:00:19;2.07;;;1.20;;
20008;SDS011;10165;42.662;23.260;2024-03-08T14:02:52;2.33;;;2.00;;
20008;SDS011;10165;42.662;23.260;2024-03-08T14:05:20;3.17;;;1.57;;
20008;SDS011;10165;42.662;23.260;2024-03-08T14:07:47;3.37;;;2.30;;
20008;SDS011;10165;42.662;23.260;2024-03-08T14:10:16;8.43;;;4.83;;
20008;SDS011;10165;42.662;23.260;2024-03-08T14:12:47;2.97;;;2.23;;
20008;SDS011;10165;42.662;23.260;2024-03-08T14:15:15;20.97;;;11.07;;
20008;SDS011;10165;42.662;23.260;2024-03-08T14:17:42;8.13;;;5.00;;
20008;SDS011;10165;42.662;23.260;2024-03-08T14:20:12;2.30;;;1.63;;
20008;SDS011;10165;42.662;23.260;2024-03-08T14:22:39;4.17;;;3.67;;
20008;SDS011;10165;42.662;23.260;2024-03-08T14:25:06;1.83;;;1.60;;
20008;SDS011;10165;42.662;23.260;2024-03-08T14:27:33;6.00;;;4.30;;
20008;SDS011;10165;42.662;23.260;2024-03-08T14:30:00;4.63;;;2.77;;
20008;SDS011;10165;42.662;23.260;2024-03-08T14:32:26;3.83;;;2.07;;
20008;SDS011;10165;42.662;23.260;2024-03-08T14:34:54;1.37;;;1.27;;
20008;SDS011;10165;42.662;23.260;2024-03-08T14:37:21;1.63;;;1.47;;
20008;SDS011;10165;42.662;23.260;2024-03-08T14:39:54;2.10;;;1.43;;
20008;SDS011;10165;42.662;23.260;2024-03-08T14:42:22;3.33;;;1.50;;
20008;SDS011;10165;42.662;23.260;2024-03-08T14:44:49;3.17;;;1.80;;
20008;SDS011;10165;42.662;23.260;2024-03-08T14:47:17;4.10;;;2.63;;